Nyk Deneb — 3EOF8 — position and weather

sailwx.info

Track history (hours):
 
Tides and Currents Weather Stations Pressure Air Temp Water Temp Dewpoint Dewpoint Depression Visibility Wind Speed Wind Dir Waves Ship Positions

Nyk Deneb

Last reported at 2017-Feb-18 07:32 UTC. Time now 2017-Feb-24 03:39 UTC.
Position N 38°29' W 123°48'.

Length 294 m; draft 12 m.

Type: Ship (hazmat cat B). MMSI: 355717000.

Date/timePositionNaut miles runAvg speedWind from/ knotsBaromVisibWave heightAir tempDewpointWater temp
2017-Feb-18 07:32N 38°29' W 123°48'1717.2
2017-Feb-18 06:33N 38°18' W 123°32'1716.7
2017-Feb-18 05:33N 38°06' W 123°17'1818.3
2017-Feb-18 04:33N 37°54' W 122°59'1716.8
2017-Feb-18 03:33N 37°46' W 122°41'1414.0
2017-Feb-18 02:34N 37°49' W 122°24'4 4.1
2017-Feb-18 01:33N 37°48' W 122°19'0 0.0
2017-Feb-18 00:33N 37°48' W 122°19'0 0.0
2017-Feb-17 23:33N 37°48' W 122°19'0 0.0
2017-Feb-17 22:33N 37°48' W 122°19'0 0.0
2017-Feb-17 21:33N 37°48' W 122°19'0 0.0
2017-Feb-17 20:33N 37°48' W 122°19'0 0.0
2017-Feb-17 19:33N 37°48' W 122°19'0 0.0
2017-Feb-17 18:33N 37°48' W 122°19'0 0.0
2017-Feb-17 17:33N 37°48' W 122°19'0 0.0
2017-Feb-17 16:33N 37°48' W 122°19'0 0.0
2017-Feb-17 15:33N 37°48' W 122°19'0 0.0
2017-Feb-17 14:33N 37°48' W 122°19'0 0.2
2017-Feb-17 13:33N 37°48' W 122°18'3 2.6
2017-Feb-17 12:33N 37°48' W 122°22'1111.1
2017-Feb-17 11:34N 37°46' W 122°36'7 7.0
2017-Feb-17 10:33N 37°40' W 122°40'9 9.4
2017-Feb-17 09:33N 37°31' W 122°40'10 9.7
2017-Feb-17 08:33N 37°21' W 122°40'11 9.7
2017-Feb-17 07:25N 37°10' W 122°40'8 9.7
2017-Feb-17 06:33N 37°02' W 122°40'9 9.5
2017-Feb-17 05:33N 36°53' W 122°37'1110.7
2017-Feb-17 04:33N 36°43' W 122°31'1110.9
2017-Feb-17 03:33N 36°34' W 122°24'1111.0
2017-Feb-17 02:33N 36°24' W 122°17'1111.3
2017-Feb-17 01:33N 36°15' W 122°10'1211.7
2017-Feb-17 00:33N 36°04' W 122°03'1211.9
2017-Feb-16 23:33N 35°54' W 121°55'1211.7
2017-Feb-16 22:33N 35°44' W 121°48'1211.3
2017-Feb-16 21:30N 35°34' W 121°40'44 3.9
2017-Feb-16 10:23N 34°57' W 121°12'1 0.5
2017-Feb-16 09:21N 34°57' W 121°13'0 0.3
2017-Feb-16 08:29N 34°57' W 121°13'0 0.3
2017-Feb-16 07:33N 34°57' W 121°13'0 0.1
2017-Feb-16 06:33N 34°57' W 121°13'0 0.3
2017-Feb-16 05:33N 34°57' W 121°14'0 0.4
2017-Feb-16 04:33N 34°57' W 121°14'1 0.6
2017-Feb-16 03:33N 34°58' W 121°14'1 0.7
2017-Feb-16 02:33N 34°58' W 121°15'1 1.0
2017-Feb-16 01:33N 34°59' W 121°16'1 0.7
2017-Feb-16 00:33N 34°59' W 121°16'1 0.6
2017-Feb-15 23:31N 34°60' W 121°17'0 0.5
2017-Feb-15 22:33N 35°00' W 121°17'1 0.7
2017-Feb-15 21:32N 35°01' W 121°18'0 0.4
2017-Feb-15 20:33N 35°01' W 121°18'0 0.2
2017-Feb-15 19:33N 35°01' W 121°18'2 2.2
2017-Feb-15 18:33N 34°60' W 121°16'1110.7
2017-Feb-15 17:33N 34°51' W 121°09'1110.9
2017-Feb-15 16:33N 34°41' W 121°03'1111.0
2017-Feb-15 15:33N 34°32' W 120°55'1310.5
2017-Feb-15 14:18N 34°24' W 120°42'2311.0
2017-Feb-15 12:14N 34°18' W 120°16'711.1
2017-Feb-15 11:33N 34°16' W 120°07'1111.0
2017-Feb-15 10:33N 34°14' W 119°54'1110.8
2017-Feb-15 09:33N 34°11' W 119°42'1111.0
2017-Feb-15 08:33N 34°08' W 119°29'1110.9
2017-Feb-15 07:33N 34°05' W 119°16'1110.9
2017-Feb-15 06:33N 33°59' W 119°05'1110.9
2017-Feb-15 05:33N 33°54' W 118°53'1110.9
2017-Feb-15 04:33N 33°48' W 118°42'1111.0
2017-Feb-15 03:33N 33°43' W 118°30'1110.8
2017-Feb-15 02:33N 33°38' W 118°19'6 6.1
2017-Feb-15 01:33N 33°44' W 118°17'2 1.6
2017-Feb-15 00:31N 33°46' W 118°15'0 0.0
2017-Feb-14 23:31N 33°46' W 118°15'0 0.0
2017-Feb-14 22:28N 33°46' W 118°15'0 0.0
2017-Feb-14 21:31N 33°46' W 118°15'0 0.0
2017-Feb-14 20:25N 33°46' W 118°15'0 0.0
2017-Feb-14 19:31N 33°46' W 118°15'0 0.0
2017-Feb-14 18:31N 33°46' W 118°15'0 0.0
2017-Feb-14 17:31N 33°46' W 118°15'0 0.0
2017-Feb-14 16:31N 33°46' W 118°15'0 0.0
2017-Feb-14 15:31N 33°46' W 118°15'0 0.0
2017-Feb-14 14:31N 33°46' W 118°15'0 0.0
2017-Feb-14 13:31N 33°46' W 118°15'0 0.0
2017-Feb-14 12:31N 33°46' W 118°15'0 0.0
2017-Feb-14 11:31N 33°46' W 118°15'0 0.0
2017-Feb-14 10:31N 33°46' W 118°15'0 0.0
2017-Feb-14 09:31N 33°46' W 118°15'0 0.0
2017-Feb-14 08:31N 33°46' W 118°15'0 0.0
2017-Feb-14 07:31N 33°46' W 118°15'0 0.0
2017-Feb-14 06:28N 33°46' W 118°15'0 0.0
2017-Feb-14 05:31N 33°46' W 118°15'0 0.0
2017-Feb-14 04:28N 33°46' W 118°15'0 0.0
2017-Feb-14 03:31N 33°46' W 118°15'0 0.0
2017-Feb-14 02:31N 33°46' W 118°15'0 0.0
2017-Feb-14 01:31N 33°46' W 118°15'0 0.0
2017-Feb-14 00:31N 33°46' W 118°15'0 0.0
2017-Feb-13 23:31N 33°46' W 118°15'0 0.0
2017-Feb-13 22:31N 33°46' W 118°15'0 0.0
2017-Feb-13 21:31N 33°46' W 118°15'0 0.0
2017-Feb-13 20:31N 33°46' W 118°15'0 0.0
2017-Feb-13 19:28N 33°46' W 118°15'0 0.0
2017-Feb-13 18:31N 33°46' W 118°15'0 0.0
2017-Feb-13 17:31N 33°46' W 118°15'0 0.0
2017-Feb-13 16:31N 33°46' W 118°15'0 0.1
2017-Feb-13 15:33N 33°46' W 118°15'4 3.7
2017-Feb-13 14:33N 33°42' W 118°15'8 7.7
2017-Feb-13 13:33N 33°35' W 118°10'1111.0
2017-Feb-13 12:33N 33°25' W 118°05'1211.7
2017-Feb-13 11:33N 33°14' W 118°00'1211.5
2017-Feb-13 10:33N 33°03' W 117°55'1111.5
2017-Feb-13 09:33N 32°53' W 117°49'1211.6
2017-Feb-13 08:33N 32°43' W 117°43'1211.8
2017-Feb-13 07:33N 32°32' W 117°38'1211.7
2017-Feb-13 06:33N 32°20' W 117°35'1413.8
2017-Feb-13 05:33N 32°07' W 117°30'1514.6
2017-Feb-13 04:33N 31°53' W 117°26'1414.3
2017-Feb-13 03:34N 31°39' W 117°22'1414.4
2017-Feb-13 02:33N 31°25' W 117°18'  
Track history (hours):
 
Tides and Currents Weather Stations Pressure Air Temp Water Temp Dewpoint Dewpoint Depression Visibility Wind Speed Wind Dir Waves Ship Positions

Nyk Deneb

Last reported at 2017-Feb-18 07:32 UTC. Time now 2017-Feb-24 03:39 UTC.
Position N 38°29' W 123°48'.

Length 294 m; draft 12 m.

Type: Ship (hazmat cat B). MMSI: 355717000.

Date/timePositionNaut miles runAvg speedWind from/ knotsBaromVisibWave heightAir tempDewpointWater temp
2017-Feb-18 07:32N 38°29' W 123°48'1717.2
2017-Feb-18 06:33N 38°18' W 123°32'1716.7
2017-Feb-18 05:33N 38°06' W 123°17'1818.3
2017-Feb-18 04:33N 37°54' W 122°59'1716.8
2017-Feb-18 03:33N 37°46' W 122°41'1414.0
2017-Feb-18 02:34N 37°49' W 122°24'4 4.1
2017-Feb-18 01:33N 37°48' W 122°19'0 0.0
2017-Feb-18 00:33N 37°48' W 122°19'0 0.0
2017-Feb-17 23:33N 37°48' W 122°19'0 0.0
2017-Feb-17 22:33N 37°48' W 122°19'0 0.0
2017-Feb-17 21:33N 37°48' W 122°19'0 0.0
2017-Feb-17 20:33N 37°48' W 122°19'0 0.0
2017-Feb-17 19:33N 37°48' W 122°19'0 0.0
2017-Feb-17 18:33N 37°48' W 122°19'0 0.0
2017-Feb-17 17:33N 37°48' W 122°19'0 0.0
2017-Feb-17 16:33N 37°48' W 122°19'0 0.0
2017-Feb-17 15:33N 37°48' W 122°19'0 0.0
2017-Feb-17 14:33N 37°48' W 122°19'0 0.2
2017-Feb-17 13:33N 37°48' W 122°18'3 2.6
2017-Feb-17 12:33N 37°48' W 122°22'1111.1
2017-Feb-17 11:34N 37°46' W 122°36'7 7.0
2017-Feb-17 10:33N 37°40' W 122°40'9 9.4
2017-Feb-17 09:33N 37°31' W 122°40'10 9.7
2017-Feb-17 08:33N 37°21' W 122°40'11 9.7
2017-Feb-17 07:25N 37°10' W 122°40'8 9.7
2017-Feb-17 06:33N 37°02' W 122°40'9 9.5
2017-Feb-17 05:33N 36°53' W 122°37'1110.7
2017-Feb-17 04:33N 36°43' W 122°31'1110.9
2017-Feb-17 03:33N 36°34' W 122°24'1111.0
2017-Feb-17 02:33N 36°24' W 122°17'1111.3
2017-Feb-17 01:33N 36°15' W 122°10'1211.7
2017-Feb-17 00:33N 36°04' W 122°03'1211.9
2017-Feb-16 23:33N 35°54' W 121°55'1211.7
2017-Feb-16 22:33N 35°44' W 121°48'1211.3
2017-Feb-16 21:30N 35°34' W 121°40'44 3.9
2017-Feb-16 10:23N 34°57' W 121°12'1 0.5
2017-Feb-16 09:21N 34°57' W 121°13'0 0.3
2017-Feb-16 08:29N 34°57' W 121°13'0 0.3
2017-Feb-16 07:33N 34°57' W 121°13'0 0.1
2017-Feb-16 06:33N 34°57' W 121°13'0 0.3
2017-Feb-16 05:33N 34°57' W 121°14'0 0.4
2017-Feb-16 04:33N 34°57' W 121°14'1 0.6
2017-Feb-16 03:33N 34°58' W 121°14'1 0.7
2017-Feb-16 02:33N 34°58' W 121°15'1 1.0
2017-Feb-16 01:33N 34°59' W 121°16'1 0.7
2017-Feb-16 00:33N 34°59' W 121°16'1 0.6
2017-Feb-15 23:31N 34°60' W 121°17'0 0.5
2017-Feb-15 22:33N 35°00' W 121°17'1 0.7
2017-Feb-15 21:32N 35°01' W 121°18'0 0.4
2017-Feb-15 20:33N 35°01' W 121°18'0 0.2
2017-Feb-15 19:33N 35°01' W 121°18'2 2.2
2017-Feb-15 18:33N 34°60' W 121°16'1110.7
2017-Feb-15 17:33N 34°51' W 121°09'1110.9
2017-Feb-15 16:33N 34°41' W 121°03'1111.0
2017-Feb-15 15:33N 34°32' W 120°55'1310.5
2017-Feb-15 14:18N 34°24' W 120°42'2311.0
2017-Feb-15 12:14N 34°18' W 120°16'711.1
2017-Feb-15 11:33N 34°16' W 120°07'1111.0
2017-Feb-15 10:33N 34°14' W 119°54'1110.8
2017-Feb-15 09:33N 34°11' W 119°42'1111.0
2017-Feb-15 08:33N 34°08' W 119°29'1110.9
2017-Feb-15 07:33N 34°05' W 119°16'1110.9
2017-Feb-15 06:33N 33°59' W 119°05'1110.9
2017-Feb-15 05:33N 33°54' W 118°53'1110.9
2017-Feb-15 04:33N 33°48' W 118°42'1111.0
2017-Feb-15 03:33N 33°43' W 118°30'1110.8
2017-Feb-15 02:33N 33°38' W 118°19'6 6.1
2017-Feb-15 01:33N 33°44' W 118°17'2 1.6
2017-Feb-15 00:31N 33°46' W 118°15'0 0.0
2017-Feb-14 23:31N 33°46' W 118°15'0 0.0
2017-Feb-14 22:28N 33°46' W 118°15'0 0.0
2017-Feb-14 21:31N 33°46' W 118°15'0 0.0
2017-Feb-14 20:25N 33°46' W 118°15'0 0.0
2017-Feb-14 19:31N 33°46' W 118°15'0 0.0
2017-Feb-14 18:31N 33°46' W 118°15'0 0.0
2017-Feb-14 17:31N 33°46' W 118°15'0 0.0
2017-Feb-14 16:31N 33°46' W 118°15'0 0.0
2017-Feb-14 15:31N 33°46' W 118°15'0 0.0
2017-Feb-14 14:31N 33°46' W 118°15'0 0.0
2017-Feb-14 13:31N 33°46' W 118°15'0 0.0
2017-Feb-14 12:31N 33°46' W 118°15'0 0.0
2017-Feb-14 11:31N 33°46' W 118°15'0 0.0
2017-Feb-14 10:31N 33°46' W 118°15'0 0.0
2017-Feb-14 09:31N 33°46' W 118°15'0 0.0
2017-Feb-14 08:31N 33°46' W 118°15'0 0.0
2017-Feb-14 07:31N 33°46' W 118°15'0 0.0
2017-Feb-14 06:28N 33°46' W 118°15'0 0.0
2017-Feb-14 05:31N 33°46' W 118°15'0 0.0
2017-Feb-14 04:28N 33°46' W 118°15'0 0.0
2017-Feb-14 03:31N 33°46' W 118°15'0 0.0
2017-Feb-14 02:31N 33°46' W 118°15'0 0.0
2017-Feb-14 01:31N 33°46' W 118°15'0 0.0
2017-Feb-14 00:31N 33°46' W 118°15'0 0.0
2017-Feb-13 23:31N 33°46' W 118°15'0 0.0
2017-Feb-13 22:31N 33°46' W 118°15'0 0.0
2017-Feb-13 21:31N 33°46' W 118°15'0 0.0
2017-Feb-13 20:31N 33°46' W 118°15'0 0.0
2017-Feb-13 19:28N 33°46' W 118°15'0 0.0
2017-Feb-13 18:31N 33°46' W 118°15'0 0.0
2017-Feb-13 17:31N 33°46' W 118°15'0 0.0
2017-Feb-13 16:31N 33°46' W 118°15'0 0.1
2017-Feb-13 15:33N 33°46' W 118°15'4 3.7
2017-Feb-13 14:33N 33°42' W 118°15'8 7.7
2017-Feb-13 13:33N 33°35' W 118°10'1111.0
2017-Feb-13 12:33N 33°25' W 118°05'1211.7
2017-Feb-13 11:33N 33°14' W 118°00'1211.5
2017-Feb-13 10:33N 33°03' W 117°55'1111.5
2017-Feb-13 09:33N 32°53' W 117°49'1211.6
2017-Feb-13 08:33N 32°43' W 117°43'1211.8
2017-Feb-13 07:33N 32°32' W 117°38'1211.7
2017-Feb-13 06:33N 32°20' W 117°35'1413.8
2017-Feb-13 05:33N 32°07' W 117°30'1514.6
2017-Feb-13 04:33N 31°53' W 117°26'1414.3
2017-Feb-13 03:34N 31°39' W 117°22'1414.4
2017-Feb-13 02:33N 31°25' W 117°18'  

Dump ship's entire track history